createdAt,value
2016-08-14T10:41:41.598Z,24.71
2016-08-14T10:42:41.196Z,24.76
2016-08-14T10:43:42.197Z,24.82
2016-08-14T10:44:41.554Z,24.85
2016-08-14T10:45:41.947Z,24.95
2016-08-14T10:46:41.923Z,25.15
2016-08-14T10:47:41.461Z,25.07
2016-08-14T10:48:41.933Z,25.09
2016-08-14T10:49:41.276Z,25.09
2016-08-14T10:50:41.751Z,25.15
2016-08-14T10:51:41.184Z,25.17
2016-08-14T10:52:41.254Z,25.13
2016-08-14T10:53:41.723Z,25.19
2016-08-14T10:54:41.346Z,25.3
2016-08-14T10:55:41.427Z,25.25
2016-08-14T10:56:41.227Z,25.17
2016-08-14T10:57:41.193Z,25.38
2016-08-14T10:58:42.015Z,25.38
2016-08-14T10:59:41.235Z,25.37
2016-08-14T11:00:41.226Z,25.42
2016-08-14T11:01:41.377Z,25.34
2016-08-14T11:02:41.988Z,25.49
2016-08-14T11:03:41.199Z,25.59
2016-08-14T11:04:41.294Z,25.43
2016-08-14T11:05:41.216Z,25.39
2016-08-14T11:06:42.135Z,25.39
2016-08-14T11:07:42.188Z,25.42
2016-08-14T11:08:41.245Z,25.35
2016-08-14T11:09:41.319Z,25.46
2016-08-14T11:10:41.238Z,25.39
2016-08-14T11:11:41.758Z,25.42
2016-08-14T11:12:41.787Z,25.35
2016-08-14T11:13:41.236Z,25.38
2016-08-14T11:14:42.079Z,25.35
2016-08-14T11:15:41.301Z,25.39
2016-08-14T11:16:41.225Z,25.34
2016-08-14T11:17:42.172Z,25.35
2016-08-14T11:18:41.421Z,25.25
2016-08-14T11:19:41.319Z,25.32
2016-08-14T11:20:41.332Z,25.31
2016-08-14T11:21:41.241Z,25.43
2016-08-14T11:22:41.846Z,25.39
2016-08-14T11:23:41.250Z,25.47
2016-08-14T11:24:41.257Z,25.62
2016-08-14T11:25:41.232Z,25.65
2016-08-14T11:26:41.392Z,25.75
2016-08-14T11:27:41.318Z,25.74
2016-08-14T11:28:41.693Z,25.69
2016-08-14T11:29:41.267Z,25.72
2016-08-14T11:30:41.559Z,25.64
2016-08-14T11:31:41.257Z,25.74
2016-08-14T11:32:41.236Z,25.69
2016-08-14T11:33:41.368Z,25.71
2016-08-14T11:34:41.349Z,25.62
2016-08-14T11:35:41.306Z,25.67
2016-08-14T11:36:41.275Z,25.64
2016-08-14T11:37:41.243Z,25.64
2016-08-14T11:38:41.517Z,25.59
2016-08-14T11:39:41.273Z,25.77
2016-08-14T11:40:41.321Z,25.79
2016-08-14T11:41:41.273Z,25.79
2016-08-14T11:42:41.243Z,25.87
2016-08-14T11:43:41.237Z,26.01
2016-08-14T11:44:41.242Z,25.99
2016-08-14T11:45:41.262Z,26.01
2016-08-14T11:46:41.304Z,26.17
2016-08-14T11:47:41.438Z,26.29
2016-08-14T11:48:41.302Z,26.35
2016-08-14T11:49:41.297Z,26.24
2016-08-14T11:50:41.304Z,26.32
2016-08-14T11:51:41.321Z,26.25
2016-08-14T11:52:41.326Z,26.36
2016-08-14T11:53:41.394Z,26.43
2016-08-14T11:54:41.261Z,26.54
2016-08-14T11:55:41.294Z,26.64
2016-08-14T11:56:41.319Z,26.77
2016-08-14T11:57:41.347Z,26.76
2016-08-14T11:58:41.395Z,26.73
2016-08-14T11:59:41.285Z,26.69
2016-08-14T12:00:41.348Z,26.69
2016-08-14T12:01:41.340Z,26.65
2016-08-14T12:02:42.120Z,26.55
2016-08-14T12:03:41.304Z,26.62
2016-08-14T12:04:41.289Z,26.61
2016-08-14T12:05:41.305Z,26.65
2016-08-14T12:06:41.482Z,26.59
2016-08-14T12:07:41.342Z,26.54
2016-08-14T12:08:41.871Z,26.54
2016-08-14T12:09:41.452Z,26.5
2016-08-14T12:10:41.482Z,26.52
2016-08-14T12:11:41.965Z,26.5
2016-08-14T12:12:41.278Z,26.47
2016-08-14T12:13:41.292Z,26.54
2016-08-14T12:14:41.359Z,26.61
2016-08-14T12:15:41.491Z,26.52
2016-08-14T12:16:41.357Z,26.58
2016-08-14T12:17:41.357Z,26.61
2016-08-14T12:18:41.858Z,26.65
2016-08-14T12:19:42.073Z,26.68
2016-08-14T12:20:41.336Z,26.79
2016-08-14T12:21:41.869Z,26.74
2016-08-14T12:22:41.391Z,26.68
2016-08-14T12:23:41.317Z,26.76
2016-08-14T12:24:41.327Z,26.83
2016-08-14T12:25:41.466Z,26.89
2016-08-14T12:26:41.395Z,26.99
2016-08-14T12:27:41.380Z,27.01
2016-08-14T12:28:49.257Z,27.06
2016-08-14T12:30:02.988Z,27.13
2016-08-14T12:30:41.454Z,27.16
2016-08-14T12:32:10.733Z,27.02
2016-08-14T12:33:22.056Z,27.04
2016-08-14T12:34:38.096Z,26.91
2016-08-14T12:35:36.988Z,27.04
2016-08-14T12:36:51.324Z,27.09
2016-08-14T12:37:34.274Z,27.06
2016-08-14T12:38:39.346Z,27.05
2016-08-14T12:39:40.076Z,27.06
2016-08-14T12:40:29.923Z,27.06
2016-08-14T12:41:58.873Z,26.98
2016-08-14T12:43:22.886Z,26.96
2016-08-14T12:44:48.460Z,26.77
2016-08-14T12:46:13.777Z,26.52
2016-08-14T12:47:40.120Z,26.36
2016-08-14T12:49:04.999Z,26.17
2016-08-14T12:50:22.566Z,25.9
2016-08-14T12:51:44.617Z,25.89
2016-08-14T12:53:06.641Z,25.72
2016-08-14T12:54:33.517Z,25.49
2016-08-14T12:55:40.792Z,25.49
2016-08-14T12:56:49.334Z,25.27
2016-08-14T12:58:06.003Z,25.22
2016-08-14T12:59:05.628Z,25.15
2016-08-14T13:00:04.179Z,24.85
2016-08-14T13:00:54.256Z,24.83
2016-08-14T13:01:48.641Z,24.79
2016-08-14T13:02:50.426Z,24.73
2016-08-14T13:03:48.060Z,24.77
2016-08-14T13:04:48.063Z,24.85
2016-08-14T13:05:48.060Z,24.75
2016-08-14T13:06:48.093Z,24.82
2016-08-14T13:07:48.093Z,24.9
2016-08-14T13:08:48.378Z,24.73
2016-08-14T13:09:49.182Z,24.88
2016-08-14T13:10:48.816Z,25
2016-08-14T13:11:48.127Z,24.97
2016-08-14T13:12:48.799Z,25.01
2016-08-14T13:13:48.140Z,25
2016-08-14T13:14:48.088Z,25.02
2016-08-14T13:15:48.114Z,25.07
2016-08-14T13:16:48.072Z,25.06
2016-08-14T13:17:48.253Z,25.16
2016-08-14T13:18:48.080Z,25.05
2016-08-14T13:19:48.097Z,24.95
2016-08-14T13:20:48.156Z,24.94
2016-08-14T13:21:48.107Z,24.88
2016-08-14T13:22:48.149Z,24.88
2016-08-14T13:23:48.073Z,24.8
2016-08-14T13:24:48.180Z,24.87
2016-08-14T13:25:48.134Z,24.87
2016-08-14T13:26:48.184Z,24.79
2016-08-14T13:27:48.100Z,24.91
2016-08-14T13:28:49.071Z,24.87
2016-08-14T13:29:48.092Z,24.91
2016-08-14T13:30:48.740Z,24.94
2016-08-14T13:31:48.082Z,24.92
2016-08-14T13:32:48.132Z,24.85
2016-08-14T13:33:48.080Z,24.82
2016-08-14T13:34:48.091Z,24.92
2016-08-14T13:35:48.088Z,24.9
2016-08-14T13:36:48.119Z,24.94
2016-08-14T13:37:48.090Z,25.12
2016-08-14T13:38:48.127Z,25.22
2016-08-14T13:39:48.123Z,25.24
2016-08-14T13:40:48.150Z,25.13
2016-08-14T13:41:48.090Z,25.22
2016-08-14T13:42:48.261Z,25.15
2016-08-14T13:43:48.078Z,25.19
2016-08-14T13:44:48.117Z,25.32
2016-08-14T13:45:48.108Z,25.19
2016-08-14T13:46:48.252Z,25.15
2016-08-14T13:47:48.100Z,25
2016-08-14T13:48:48.120Z,25
2016-08-14T13:49:48.195Z,24.79
2016-08-14T13:50:48.123Z,24.68
2016-08-14T13:51:48.126Z,24.73
2016-08-14T13:52:48.143Z,24.82
2016-08-14T13:53:48.144Z,24.83
2016-08-14T13:54:48.230Z,24.88
2016-08-14T13:55:48.251Z,24.82
2016-08-14T13:56:48.116Z,24.76
2016-08-14T13:57:48.107Z,24.83
2016-08-14T13:58:48.133Z,24.8
2016-08-14T13:59:48.107Z,24.8
2016-08-14T14:00:48.118Z,24.85
2016-08-14T14:01:48.116Z,24.77
2016-08-14T14:02:48.121Z,24.85
2016-08-14T14:03:48.167Z,24.85
2016-08-14T14:04:48.195Z,24.76
2016-08-14T14:05:48.127Z,24.95
2016-08-14T14:06:48.178Z,24.79
2016-08-14T14:07:48.125Z,24.8
2016-08-14T14:08:48.152Z,24.75
2016-08-14T14:09:48.197Z,24.71
2016-08-14T14:10:48.130Z,24.61
2016-08-14T14:11:48.158Z,24.52
2016-08-14T14:12:48.135Z,24.53
2016-08-14T14:13:48.211Z,24.54
2016-08-14T14:14:48.187Z,24.54
2016-08-14T14:15:48.500Z,24.59
2016-08-14T14:16:48.155Z,24.53
2016-08-14T14:17:48.220Z,24.56
2016-08-14T14:18:48.214Z,24.69
2016-08-14T14:19:48.246Z,24.63
2016-08-14T14:20:48.255Z,24.79
2016-08-14T14:21:48.307Z,24.71
2016-08-14T14:22:48.272Z,24.75
2016-08-14T14:23:48.170Z,24.87
2016-08-14T14:24:48.181Z,24.85
2016-08-14T14:25:48.163Z,24.88
2016-08-14T14:26:48.153Z,25.02
2016-08-14T14:27:48.154Z,25
2016-08-14T14:28:48.138Z,25.02
2016-08-14T14:29:48.187Z,25.09
2016-08-14T14:30:48.181Z,25.19
2016-08-14T14:31:48.249Z,25.2
2016-08-14T14:32:48.311Z,25.19
2016-08-14T14:33:48.221Z,25.19
2016-08-14T14:34:48.139Z,25.16
2016-08-14T14:35:48.136Z,25.22
2016-08-14T14:36:48.154Z,25.16
2016-08-14T14:37:48.263Z,25.13
2016-08-14T14:38:48.156Z,25.15
2016-08-14T14:39:48.179Z,25.15
2016-08-14T14:40:48.169Z,25.02
2016-08-14T14:41:48.185Z,25.13
2016-08-14T14:42:48.153Z,25.25
2016-08-14T14:43:48.189Z,25.17
2016-08-14T14:44:48.190Z,25.16
2016-08-14T14:45:48.295Z,25.22
2016-08-14T14:46:48.213Z,25.2
2016-08-14T14:47:48.292Z,25.31
2016-08-14T14:48:48.287Z,25.32
2016-08-14T14:49:48.244Z,25.31
2016-08-14T14:50:48.223Z,25.34
2016-08-14T14:51:48.198Z,25.27
2016-08-14T14:52:48.197Z,25.38
2016-08-14T14:53:48.187Z,25.28
2016-08-14T14:54:48.176Z,25.25
2016-08-14T14:55:48.173Z,25.02
2016-08-14T14:56:48.165Z,25.06
2016-08-14T14:57:48.189Z,25.01
2016-08-14T14:58:48.205Z,24.92
2016-08-14T14:59:48.200Z,24.91
2016-08-14T15:00:48.191Z,24.92
2016-08-14T15:01:48.243Z,24.69
2016-08-14T15:02:48.207Z,24.64
2016-08-14T15:03:48.231Z,24.59
2016-08-14T15:04:48.224Z,24.6
2016-08-14T15:05:48.204Z,24.52
2016-08-14T15:06:48.246Z,24.53
2016-08-14T15:07:48.199Z,24.44
2016-08-14T15:08:48.195Z,24.41
2016-08-14T15:09:48.258Z,24.27
2016-08-14T15:10:48.192Z,24.22
2016-08-14T15:11:48.199Z,24.14
2016-08-14T15:12:48.232Z,24.04
2016-08-14T15:13:48.229Z,24.05
2016-08-14T15:14:48.190Z,23.92
2016-08-14T15:15:48.200Z,23.76
2016-08-14T15:16:48.219Z,23.95
2016-08-14T15:17:48.219Z,23.89
2016-08-14T15:18:48.183Z,24.1
2016-08-14T15:19:48.237Z,24.08
2016-08-14T15:20:48.235Z,24.24
2016-08-14T15:21:48.200Z,24.14
2016-08-14T15:22:48.204Z,24.27
2016-08-14T15:23:48.239Z,24.32
2016-08-14T15:24:48.278Z,24.47
2016-08-14T15:25:48.318Z,24.53
2016-08-14T15:26:48.262Z,24.69
2016-08-14T15:27:49.068Z,24.73
2016-08-14T15:28:48.903Z,24.94
2016-08-14T15:29:48.230Z,24.95
2016-08-14T15:30:48.260Z,25.07
2016-08-14T15:31:48.235Z,25.13
2016-08-14T15:32:48.830Z,25.19
2016-08-14T15:33:48.263Z,25.24
2016-08-14T15:34:48.576Z,25.34
2016-08-14T15:35:48.323Z,25.34
2016-08-14T15:36:48.775Z,25.39
2016-08-14T15:37:48.248Z,25.43
2016-08-14T15:38:48.582Z,25.64
2016-08-14T15:39:48.203Z,25.57
2016-08-14T15:40:48.234Z,25.8
2016-08-14T15:41:48.219Z,25.75
2016-08-14T15:42:48.217Z,25.74
2016-08-14T15:43:48.222Z,25.68
2016-08-14T15:44:48.263Z,25.54
2016-08-14T15:45:48.280Z,25.39
2016-08-14T15:46:48.319Z,25.27
2016-08-14T15:47:48.334Z,25.22
2016-08-14T15:48:48.322Z,25.25
2016-08-14T15:49:48.332Z,25.3
2016-08-14T15:50:48.260Z,25.27
2016-08-14T15:51:48.299Z,25.28
2016-08-14T15:52:48.288Z,25.22
2016-08-14T15:53:48.275Z,25.15
2016-08-14T15:54:48.337Z,25.06
2016-08-14T15:55:48.266Z,24.87
2016-08-14T15:56:48.260Z,24.83
2016-08-14T15:57:48.306Z,24.75
2016-08-14T15:58:48.280Z,24.76
2016-08-14T15:59:48.303Z,24.61
2016-08-14T16:00:48.251Z,24.85
2016-08-14T16:01:48.261Z,24.8
2016-08-14T16:02:48.289Z,24.91
2016-08-14T16:03:48.256Z,24.9
2016-08-14T16:04:48.266Z,24.92
2016-08-14T16:05:48.291Z,24.97
2016-08-14T16:06:48.289Z,25
2016-08-14T16:07:48.263Z,24.97
2016-08-14T16:08:48.251Z,24.95
2016-08-14T16:09:48.296Z,24.73
2016-08-14T16:10:48.302Z,24.82
2016-08-14T16:11:48.286Z,24.87
2016-08-14T16:12:48.292Z,24.69
2016-08-14T16:13:48.317Z,24.77
2016-08-14T16:14:48.353Z,24.9
2016-08-14T16:15:48.250Z,24.87
2016-08-14T16:16:48.268Z,24.6
2016-08-14T16:17:48.268Z,24.53
2016-08-14T16:18:48.283Z,24.47
2016-08-14T16:19:48.297Z,24.53
2016-08-14T16:20:48.316Z,24.44
2016-08-14T16:21:48.269Z,24.29
2016-08-14T16:22:48.263Z,24.32
2016-08-14T16:23:48.320Z,24.19
2016-08-14T16:24:48.267Z,24.24
2016-08-14T16:25:48.268Z,24.27
2016-08-14T16:26:48.300Z,23.98
2016-08-14T16:27:48.308Z,23.94
2016-08-14T16:28:48.272Z,23.77
2016-08-14T16:29:48.276Z,23.79
2016-08-14T16:30:48.279Z,23.82
2016-08-14T16:31:48.273Z,23.76
2016-08-14T16:32:48.249Z,23.64
2016-08-14T16:33:48.324Z,23.57
2016-08-14T16:34:48.264Z,23.72
2016-08-14T16:35:48.279Z,23.64
2016-08-14T16:36:48.262Z,23.42
2016-08-14T16:37:48.266Z,23.53
2016-08-14T16:38:48.324Z,23.5
2016-08-14T16:39:48.278Z,23.46
2016-08-14T16:40:48.298Z,23.61
2016-08-14T16:41:48.535Z,23.7
2016-08-14T16:42:49.089Z,23.53
2016-08-14T16:43:48.279Z,23.52
2016-08-14T16:44:48.987Z,23.7
2016-08-14T16:45:48.281Z,23.65
2016-08-14T16:46:48.272Z,23.62
2016-08-14T16:47:48.291Z,23.65
2016-08-14T16:48:48.316Z,23.53
2016-08-14T16:49:49.297Z,23.47
2016-08-14T16:50:48.279Z,23.68
2016-08-14T16:51:48.724Z,23.72
2016-08-14T16:52:48.296Z,23.57
2016-08-14T16:53:48.380Z,23.71
2016-08-14T16:54:48.343Z,23.64
2016-08-14T16:55:48.285Z,23.6
2016-08-14T16:56:49.074Z,23.61
2016-08-14T16:57:48.786Z,23.62
2016-08-14T16:58:48.792Z,23.52
2016-08-14T16:59:48.295Z,23.53
2016-08-14T17:00:48.532Z,23.47
2016-08-14T17:01:48.663Z,23.45
2016-08-14T17:02:48.294Z,23.42
2016-08-14T17:03:48.312Z,23.32
2016-08-14T17:04:48.276Z,23.22
2016-08-14T17:05:48.874Z,23.14
2016-08-14T17:06:48.353Z,23.19
2016-08-14T17:07:48.308Z,23.08
2016-08-14T17:08:48.299Z,22.93
2016-08-14T17:09:48.298Z,22.87
2016-08-14T17:10:48.313Z,22.83
2016-08-14T17:11:48.460Z,22.72
2016-08-14T17:12:48.311Z,22.69
2016-08-14T17:13:48.314Z,22.53
2016-08-14T17:14:48.320Z,22.59
2016-08-14T17:15:48.330Z,22.53
2016-08-14T17:16:48.810Z,22.57
2016-08-14T17:17:48.341Z,22.49
2016-08-14T17:18:48.306Z,22.39
2016-08-14T17:19:49.160Z,22.41
2016-08-14T17:20:48.375Z,22.39
2016-08-14T17:21:48.369Z,22.17
2016-08-14T17:22:48.903Z,22.09
2016-08-14T17:23:48.374Z,22.02
2016-08-14T17:24:48.349Z,21.99
2016-08-14T17:25:48.370Z,21.99
2016-08-14T17:26:48.329Z,21.85
2016-08-14T17:27:49.012Z,21.97
2016-08-14T17:28:48.318Z,21.82
2016-08-14T17:29:48.327Z,21.83
2016-08-14T17:30:48.379Z,21.79
2016-08-14T17:31:48.321Z,21.72
2016-08-14T17:32:48.330Z,21.71
2016-08-14T17:33:48.315Z,21.69
2016-08-14T17:34:50.128Z,21.56
2016-08-14T17:35:48.689Z,21.6
2016-08-14T17:36:49.077Z,21.51
2016-08-14T17:37:48.531Z,21.46
2016-08-14T17:38:48.332Z,21.54
2016-08-14T17:39:48.343Z,21.54
2016-08-14T17:40:48.342Z,21.41
2016-08-14T17:41:48.990Z,21.24
2016-08-14T17:42:48.477Z,21.34
2016-08-14T17:43:48.359Z,21.24
2016-08-14T17:44:48.464Z,21.19
2016-08-14T17:45:48.364Z,21.19
2016-08-14T17:46:49.012Z,21.16
2016-08-14T17:47:48.365Z,21.09
2016-08-14T17:48:48.358Z,21.02
2016-08-14T17:49:48.363Z,21.02
2016-08-14T17:50:48.377Z,20.96
2016-08-14T17:51:48.434Z,20.96
2016-08-14T17:52:48.344Z,20.84
2016-08-14T17:53:48.345Z,20.93
2016-08-14T17:54:48.356Z,20.77
2016-08-14T17:55:48.613Z,20.84
2016-08-14T17:56:48.350Z,20.77
2016-08-14T17:57:48.370Z,20.81
2016-08-14T17:58:48.477Z,20.68
2016-08-14T17:59:48.631Z,20.74
2016-08-14T18:00:48.793Z,20.69
2016-08-14T18:01:48.402Z,20.66
2016-08-14T18:02:48.373Z,20.59
2016-08-14T18:03:48.381Z,20.61
2016-08-14T18:04:48.364Z,20.47
2016-08-14T18:05:49.033Z,20.51
2016-08-14T18:06:48.379Z,20.5
2016-08-14T18:07:49.862Z,20.53
2016-08-14T18:08:48.377Z,20.38
2016-08-14T18:09:48.368Z,20.41
2016-08-14T18:10:48.421Z,20.35
2016-08-14T18:11:48.367Z,20.3
2016-08-14T18:12:48.362Z,20.13
2016-08-14T18:13:48.382Z,20.1
2016-08-14T18:14:48.716Z,20.15
2016-08-14T18:15:48.372Z,20.1
2016-08-14T18:16:48.357Z,20.13
2016-08-14T18:17:48.397Z,20.06
2016-08-14T18:18:49.002Z,20.05
2016-08-14T18:19:48.376Z,19.97
2016-08-14T18:20:48.347Z,20.02
2016-08-14T18:21:48.373Z,19.95
2016-08-14T18:22:48.418Z,19.93
2016-08-14T18:23:48.405Z,19.91
2016-08-14T18:24:48.434Z,19.88
2016-08-14T18:25:48.419Z,19.72
2016-08-14T18:26:48.484Z,19.7
2016-08-14T18:27:48.434Z,19.75
2016-08-14T18:28:48.437Z,19.8
2016-08-14T18:29:48.474Z,19.73
2016-08-14T18:30:48.382Z,19.58
2016-08-14T18:31:48.402Z,19.63
2016-08-14T18:32:48.421Z,19.61
2016-08-14T18:33:48.446Z,19.61
2016-08-14T18:34:48.394Z,19.6
2016-08-14T18:35:48.415Z,19.47
2016-08-14T18:36:48.403Z,19.54
2016-08-14T18:37:48.379Z,19.42
2016-08-14T18:38:48.431Z,19.43
2016-08-14T18:39:48.430Z,19.42
2016-08-14T18:40:48.399Z,19.33
2016-08-14T18:41:48.408Z,19.31
2016-08-14T18:42:48.408Z,19.39
2016-08-14T18:43:48.412Z,19.17
2016-08-14T18:44:48.428Z,19.28
2016-08-14T18:45:48.413Z,19.25
2016-08-14T18:46:48.398Z,19.1
2016-08-14T18:47:48.398Z,19.17
2016-08-14T18:48:49.873Z,19.08
2016-08-14T18:49:48.409Z,19.01
2016-08-14T18:50:48.458Z,19.02
2016-08-14T18:51:48.432Z,18.87
2016-08-14T18:52:48.459Z,18.91
2016-08-14T18:53:48.418Z,19.01
2016-08-14T18:54:48.424Z,18.95
2016-08-14T18:55:48.449Z,18.86
2016-08-14T18:56:48.420Z,18.86
2016-08-14T18:57:48.487Z,18.79
2016-08-14T18:58:48.447Z,18.74
2016-08-14T18:59:48.488Z,18.68
2016-08-14T19:00:48.453Z,18.72
2016-08-14T19:01:48.534Z,18.79
2016-08-14T19:02:48.942Z,18.62
2016-08-14T19:03:48.441Z,18.72
2016-08-14T19:04:48.456Z,18.65
2016-08-14T19:06:48.432Z,18.54
2016-08-14T19:07:49.084Z,18.62
2016-08-14T19:08:48.438Z,18.49
2016-08-14T19:09:48.521Z,18.54
2016-08-14T19:10:48.488Z,18.43
2016-08-14T19:11:48.487Z,18.4
2016-08-14T19:12:48.453Z,18.43
2016-08-14T19:13:48.447Z,18.34
2016-08-14T19:14:48.439Z,18.39
2016-08-14T19:15:48.431Z,18.33
2016-08-14T19:16:48.451Z,18.28
2016-08-14T19:17:48.430Z,18.24
2016-08-14T19:18:48.452Z,18.22
2016-08-14T19:19:48.490Z,18.19
2016-08-14T19:20:48.524Z,18.21
2016-08-14T19:21:48.487Z,18.07
2016-08-14T19:22:48.513Z,18.13
2016-08-14T19:23:48.464Z,18.03
2016-08-14T19:24:48.437Z,18.06
2016-08-14T19:25:48.481Z,18.03
2016-08-14T19:26:49.111Z,17.89
2016-08-14T19:27:49.470Z,17.91
2016-08-14T19:28:48.486Z,17.88
2016-08-14T19:29:48.461Z,17.84
2016-08-14T19:30:48.480Z,17.84
2016-08-14T19:31:48.452Z,17.81
2016-08-14T19:32:48.520Z,17.73
2016-08-14T19:33:48.636Z,17.74
2016-08-14T19:34:48.472Z,17.71
2016-08-14T19:35:48.465Z,17.69
2016-08-14T19:36:48.858Z,17.69
2016-08-14T19:37:48.479Z,17.63
2016-08-14T19:38:48.462Z,17.63
2016-08-14T19:39:48.491Z,17.67
2016-08-14T19:40:48.481Z,17.57
2016-08-14T19:41:48.443Z,17.54
2016-08-14T19:42:48.485Z,17.51
2016-08-14T19:43:48.456Z,17.5
2016-08-14T19:44:48.473Z,17.55
2016-08-14T19:45:48.482Z,17.44
2016-08-14T19:46:48.510Z,17.44
2016-08-14T19:47:48.508Z,17.44
2016-08-14T19:48:48.499Z,17.54
2016-08-14T19:49:48.492Z,17.48
2016-08-14T19:50:48.494Z,17.32
2016-08-14T19:51:48.522Z,17.36
2016-08-14T19:52:48.558Z,17.43
2016-08-14T19:53:48.534Z,17.33
2016-08-14T19:54:48.531Z,17.25
2016-08-14T19:55:48.537Z,17.3
2016-08-14T19:56:48.466Z,17.35
2016-08-14T19:57:48.490Z,17.29
2016-08-14T19:58:48.484Z,17.3
2016-08-14T19:59:48.498Z,17.23
2016-08-14T20:00:48.521Z,17.25
2016-08-14T20:01:48.491Z,17.11
2016-08-14T20:02:48.563Z,17.08
2016-08-14T20:03:48.539Z,17.13
2016-08-14T20:04:48.586Z,17.06
2016-08-14T20:05:48.556Z,17.08
2016-08-14T20:06:48.589Z,17.06
2016-08-14T20:07:48.524Z,17.04
2016-08-14T20:08:48.538Z,16.93
2016-08-14T20:09:48.520Z,16.95
2016-08-14T20:10:48.538Z,16.98
2016-08-14T20:11:48.562Z,16.9
2016-08-14T20:12:48.498Z,16.81
2016-08-14T20:13:48.548Z,16.86
2016-08-14T20:14:48.513Z,16.89
2016-08-14T20:15:48.509Z,16.81
2016-08-14T20:16:48.604Z,16.81
2016-08-14T20:17:48.485Z,16.7
2016-08-14T20:18:48.509Z,16.63
2016-08-14T20:19:48.527Z,16.62
2016-08-14T20:20:48.542Z,16.67
2016-08-14T20:21:48.524Z,16.65
2016-08-14T20:22:48.518Z,16.7
2016-08-14T20:23:48.539Z,16.52
2016-08-14T20:24:48.514Z,16.49
2016-08-14T20:25:48.500Z,16.52
2016-08-14T20:26:48.519Z,16.52
2016-08-14T20:27:48.548Z,16.5
2016-08-14T20:28:48.547Z,16.55
2016-08-14T20:29:48.559Z,16.55
2016-08-14T20:30:48.605Z,16.42
2016-08-14T20:31:48.568Z,16.56
2016-08-14T20:32:48.580Z,16.49
2016-08-14T20:33:48.554Z,16.41
2016-08-14T20:34:48.541Z,16.44
2016-08-14T20:35:48.577Z,16.52
2016-08-14T20:36:48.551Z,16.3
2016-08-14T20:37:48.588Z,16.27
2016-08-14T20:38:48.536Z,16.3
2016-08-14T20:39:48.509Z,16.26
2016-08-14T20:40:48.491Z,16.31
2016-08-14T20:41:49.535Z,16.27
2016-08-14T20:42:48.516Z,16.15
2016-08-14T20:43:48.556Z,16.25
2016-08-14T20:44:48.532Z,16.06
2016-08-14T20:45:48.497Z,16.18
2016-08-14T20:46:48.529Z,16.16
2016-08-14T20:47:48.549Z,16.07
2016-08-14T20:48:48.525Z,16.07
2016-08-14T20:49:48.520Z,16
2016-08-14T20:50:48.498Z,16
2016-08-14T20:51:48.549Z,15.93
2016-08-14T20:52:48.554Z,15.89
2016-08-14T20:53:48.535Z,15.96
2016-08-14T20:54:48.541Z,15.92
2016-08-14T20:55:48.504Z,15.79
2016-08-14T20:56:48.704Z,15.79
2016-08-14T20:57:48.534Z,15.74
2016-08-14T20:58:48.566Z,15.72
2016-08-14T20:59:48.533Z,15.85
2016-08-14T21:00:48.564Z,15.79
2016-08-14T21:01:48.539Z,15.74
2016-08-14T21:02:48.555Z,15.63
2016-08-14T21:03:48.520Z,15.66
2016-08-14T21:04:48.571Z,15.64
2016-08-14T21:05:48.572Z,15.63
2016-08-14T21:06:48.579Z,15.63
2016-08-14T21:07:48.557Z,15.48
2016-08-14T21:08:48.566Z,15.48
2016-08-14T21:09:48.671Z,15.36
2016-08-14T21:10:48.586Z,15.48
2016-08-14T21:11:48.572Z,15.38
2016-08-14T21:12:48.553Z,15.38
2016-08-14T21:13:48.548Z,15.41
2016-08-14T21:14:48.672Z,15.35
2016-08-14T21:15:48.652Z,15.19
2016-08-14T21:16:48.685Z,15.36
2016-08-14T21:17:48.667Z,15.27
2016-08-14T21:18:48.581Z,15.2
2016-08-14T21:19:48.602Z,15.13
2016-08-14T21:20:48.553Z,15.03
2016-08-14T21:21:48.600Z,15.08
2016-08-14T21:22:48.587Z,15.03
2016-08-14T21:23:48.615Z,15.06
2016-08-14T21:24:48.569Z,14.88
2016-08-14T21:25:48.581Z,14.84
2016-08-14T21:26:48.540Z,15.03
2016-08-14T21:27:48.557Z,14.88
2016-08-14T21:28:48.670Z,14.88
2016-08-14T21:29:48.570Z,14.9
2016-08-14T21:30:48.682Z,14.84
2016-08-14T21:31:48.562Z,14.84
2016-08-14T21:32:48.686Z,14.83
2016-08-14T21:33:48.581Z,14.83
2016-08-14T21:34:48.578Z,14.81
2016-08-14T21:35:48.585Z,14.74
2016-08-14T21:36:48.590Z,14.81
2016-08-14T21:37:48.602Z,14.62
2016-08-14T21:38:48.652Z,14.69
2016-08-14T21:39:48.603Z,14.53
2016-08-14T21:40:48.605Z,14.67
2016-08-14T21:41:48.640Z,14.69
2016-08-14T21:42:48.611Z,14.65
2016-08-14T21:43:48.598Z,14.52
2016-08-14T21:44:48.640Z,14.53
2016-08-14T21:45:48.634Z,14.54
2016-08-14T21:46:48.637Z,14.5
2016-08-14T21:47:48.914Z,14.43
2016-08-14T21:48:48.612Z,14.38
2016-08-14T21:49:48.599Z,14.52
2016-08-14T21:50:48.606Z,14.38
2016-08-14T21:51:48.597Z,14.38
2016-08-14T21:52:48.587Z,14.42
2016-08-14T21:53:48.616Z,14.34
2016-08-14T21:54:48.588Z,14.42
2016-08-14T21:55:48.583Z,14.34
2016-08-14T21:56:48.596Z,14.28
2016-08-14T21:57:48.628Z,14.19
2016-08-14T21:58:48.766Z,14.37
2016-08-14T21:59:48.721Z,14.27
2016-08-14T22:00:48.620Z,14.25
2016-08-14T22:01:48.644Z,14.28
2016-08-14T22:02:48.604Z,14.34
2016-08-14T22:03:48.630Z,14.32
2016-08-14T22:04:48.617Z,14.32
2016-08-14T22:05:48.588Z,14.31
2016-08-14T22:06:48.613Z,14.29
2016-08-14T22:07:48.613Z,14.44
2016-08-14T22:08:48.598Z,14.35
2016-08-14T22:09:48.593Z,14.46
2016-08-14T22:10:48.583Z,14.44
2016-08-14T22:11:48.680Z,14.52
2016-08-14T22:12:48.595Z,14.47
2016-08-14T22:13:48.600Z,14.6
2016-08-14T22:14:48.628Z,14.52
2016-08-14T22:15:48.604Z,14.61
2016-08-14T22:16:48.662Z,14.6
2016-08-14T22:17:48.583Z,14.65
2016-08-14T22:18:48.605Z,14.64
2016-08-14T22:19:48.630Z,14.68
2016-08-14T22:20:48.690Z,14.62
2016-08-14T22:21:48.634Z,14.5
2016-08-14T22:22:48.617Z,14.65
2016-08-14T22:23:48.597Z,14.57
2016-08-14T22:24:48.634Z,14.67
2016-08-14T22:25:48.605Z,14.64
2016-08-14T22:26:48.594Z,14.67
2016-08-14T22:27:48.645Z,14.68
2016-08-14T22:28:48.600Z,14.6
2016-08-14T22:29:48.596Z,14.6
2016-08-14T22:30:48.607Z,14.67
2016-08-14T22:31:48.590Z,14.65
2016-08-14T22:32:48.601Z,14.61
2016-08-14T22:33:48.631Z,14.67
2016-08-14T22:34:48.654Z,14.61
2016-08-14T22:35:48.668Z,14.62
2016-08-14T22:36:48.645Z,14.65
2016-08-14T22:37:48.653Z,14.61
2016-08-14T22:38:48.674Z,14.57
2016-08-14T22:39:48.640Z,14.53
2016-08-14T22:40:48.632Z,14.54
2016-08-14T22:41:48.662Z,14.57
2016-08-14T22:42:48.620Z,14.5
2016-08-14T22:43:48.634Z,14.49
2016-08-14T22:44:48.620Z,14.53
2016-08-14T22:45:48.656Z,14.56
2016-08-14T22:46:48.654Z,14.42
2016-08-14T22:47:48.673Z,14.42
2016-08-14T22:48:48.619Z,14.43
2016-08-14T22:49:48.634Z,14.47
2016-08-14T22:50:48.649Z,14.44
2016-08-14T22:51:48.687Z,14.38
2016-08-14T22:52:48.647Z,14.25
2016-08-14T22:53:48.650Z,14.25
2016-08-14T22:54:48.648Z,14.28
2016-08-14T22:55:48.707Z,14.24
2016-08-14T22:56:48.695Z,14.24
2016-08-14T22:58:23.322Z,14.19
2016-08-14T22:59:20.824Z,14.17
2016-08-14T23:00:03.511Z,14.17
2016-08-14T23:01:03.121Z,14.1
2016-08-14T23:02:40.630Z,14.14
2016-08-14T23:04:04.085Z,14.06
2016-08-14T23:05:28.209Z,13.96
2016-08-14T23:06:51.355Z,14.01
2016-08-14T23:08:15.180Z,13.96
2016-08-14T23:09:36.597Z,14.02
2016-08-14T23:11:00.340Z,13.84
2016-08-14T23:12:22.867Z,13.83
2016-08-14T23:13:44.261Z,13.71
2016-08-14T23:15:10.172Z,13.62
2016-08-14T23:16:23.643Z,13.62
2016-08-14T23:17:28.261Z,13.59
2016-08-14T23:18:36.096Z,13.56
2016-08-14T23:19:52.105Z,13.54
2016-08-14T23:21:10.295Z,13.58
2016-08-14T23:21:36.708Z,13.47
2016-08-14T23:22:37.066Z,13.4
2016-08-14T23:23:36.707Z,13.44
2016-08-14T23:24:36.712Z,13.33
2016-08-14T23:25:36.737Z,13.37
2016-08-14T23:26:36.699Z,13.47
2016-08-14T23:27:36.690Z,13.43
2016-08-14T23:28:36.723Z,13.36
2016-08-14T23:29:36.722Z,13.32
2016-08-14T23:30:36.696Z,13.3
2016-08-14T23:31:36.714Z,13.33
2016-08-14T23:32:36.711Z,13.21
2016-08-14T23:33:36.716Z,13.27
2016-08-14T23:34:36.723Z,13.3
2016-08-14T23:35:36.723Z,13.25
2016-08-14T23:36:36.741Z,13.14
2016-08-14T23:37:36.731Z,13.21
2016-08-14T23:38:36.714Z,13.15
2016-08-14T23:39:36.724Z,13.06
2016-08-14T23:40:36.739Z,13.06
2016-08-14T23:41:36.718Z,13.12
2016-08-14T23:42:36.742Z,13.02
2016-08-14T23:43:36.724Z,12.99
2016-08-14T23:44:36.728Z,13.15
2016-08-14T23:45:36.758Z,13.14
2016-08-14T23:46:36.724Z,13.03
2016-08-14T23:47:36.760Z,13.09